Time;durP1;ratioP1;P1;durP2;ratioP2;P2;SDS_P1;SDS_P2;PMS_P1;PMS_P2;Temp;Humidity;BMP_temperature;BMP_pressure;BME280_temperature;BME280_humidity;BME280_pressure;Samples;Min_cycle;Max_cycle;Signal;HPM_P1;HPM_P2
2024/01/11 00:01:47;;;;;;;13.32;9.68;;;;;;;-4.54;100.00;103252.53;10411529;28;20033;-66
2024/01/11 00:06:48;;;;;;;17.52;11.38;;;;;;;-4.61;100.00;103261.56;10414348;28;20425;-66
2024/01/11 00:11:48;;;;;;;17.05;10.70;;;;;;;-4.67;100.00;103258.16;10412367;28;20040;-66
2024/01/11 00:16:49;;;;;;;18.40;11.82;;;;;;;-4.64;100.00;103264.28;10413146;28;20433;-66
2024/01/11 00:21:49;;;;;;;14.10;11.10;;;;;;;-4.62;100.00;103268.63;10412028;28;20040;-66
2024/01/11 00:26:50;;;;;;;16.58;11.40;;;;;;;-4.66;100.00;103256.38;10412431;28;20061;-66
2024/01/11 00:31:50;;;;;;;22.42;12.98;;;;;;;-4.66;100.00;103253.72;10412434;28;20453;-66
2024/01/11 00:36:50;;;;;;;20.17;10.32;;;;;;;-4.68;100.00;103259.06;10413506;28;20037;-66
2024/01/11 00:41:51;;;;;;;14.45;10.43;;;;;;;-4.68;100.00;103252.91;10412605;28;20044;-67
2024/01/11 00:46:51;;;;;;;15.27;11.73;;;;;;;-4.72;100.00;103259.22;10394351;28;20029;-67
2024/01/11 00:51:51;;;;;;;15.20;10.13;;;;;;;-4.77;100.00;103258.44;10411958;28;20120;-67
2024/01/11 00:56:52;;;;;;;15.75;11.32;;;;;;;-4.67;100.00;103266.09;10416967;28;20064;-67
2024/01/11 01:01:52;;;;;;;14.43;11.38;;;;;;;-4.81;100.00;103268.25;10413387;28;20033;-67
2024/01/11 01:06:53;;;;;;;17.30;12.63;;;;;;;-4.88;100.00;103261.38;10417233;28;20068;-67
2024/01/11 01:11:53;;;;;;;16.67;11.75;;;;;;;-4.81;100.00;103267.38;10419215;28;20515;-66
2024/01/11 01:16:53;;;;;;;19.15;12.40;;;;;;;-4.85;100.00;103263.94;10418068;28;20033;-67
2024/01/11 01:21:54;;;;;;;15.45;11.20;;;;;;;-4.86;100.00;103261.31;10418916;28;20106;-67
2024/01/11 01:26:54;;;;;;;19.42;13.13;;;;;;;-4.83;100.00;103269.19;10419427;28;20036;-67
2024/01/11 01:31:55;;;;;;;19.60;14.65;;;;;;;-4.83;100.00;103267.41;10417656;28;20419;-67
2024/01/11 01:36:56;;;;;;;24.38;12.45;;;;;;;-4.80;100.00;103269.97;10418934;28;20045;-67
2024/01/11 01:41:56;;;;;;;25.05;15.23;;;;;;;-4.78;100.00;103284.03;10417948;28;20417;-67
2024/01/11 01:46:57;;;;;;;19.10;14.10;;;;;;;-4.77;100.00;103279.59;10418339;28;20045;-67
2024/01/11 01:51:58;;;;;;;19.98;15.00;;;;;;;-4.80;100.00;103287.59;10415264;28;20056;-67
2024/01/11 01:56:58;;;;;;;22.15;14.38;;;;;;;-4.87;100.00;103286.91;10416055;28;20109;-67
2024/01/11 02:01:59;;;;;;;22.30;14.32;;;;;;;-4.83;100.00;103295.59;10418938;28;20392;-67
2024/01/11 02:06:59;;;;;;;20.40;14.23;;;;;;;-4.83;100.00;103300.91;10415978;28;20056;-67
2024/01/11 02:12:00;;;;;;;21.35;13.95;;;;;;;-4.85;100.00;103302.69;10419138;28;20040;-67
2024/01/11 02:17:02;;;;;;;27.98;16.75;;;;;;;-4.86;100.00;103303.63;10414815;28;20021;-68
2024/01/11 02:22:09;;;;;;;24.65;17.13;;;;;;;-4.91;100.00;103309.88;10417273;28;20045;-68
2024/01/11 02:27:10;;;;;;;20.58;13.77;;;;;;;-4.86;100.00;103307.13;10420628;28;20030;-67
2024/01/11 02:32:11;;;;;;;29.60;14.00;;;;;;;-4.90;100.00;103297.53;10425541;28;20057;-68
2024/01/11 02:37:12;;;;;;;21.35;14.07;;;;;;;-4.90;100.00;103305.47;10407466;28;20038;-67
2024/01/11 02:42:13;;;;;;;19.90;14.65;;;;;;;-4.94;100.00;103311.75;10419916;28;20033;-67
2024/01/11 02:47:13;;;;;;;24.25;14.48;;;;;;;-4.98;100.00;103310.97;10419306;28;20368;-68
2024/01/11 02:52:14;;;;;;;22.00;13.88;;;;;;;-5.00;100.00;103312.75;10414203;28;20036;-68
2024/01/11 02:57:14;;;;;;;20.38;15.13;;;;;;;-4.97;100.00;103317.09;10414334;28;20040;-68
2024/01/11 03:02:15;;;;;;;27.40;15.05;;;;;;;-5.03;100.00;103322.53;10414817;28;20029;-68
2024/01/11 03:07:15;;;;;;;25.48;15.90;;;;;;;-5.01;100.00;103303.09;10418402;28;20029;-68
2024/01/11 03:12:15;;;;;;;23.92;16.85;;;;;;;-5.06;100.00;103304.13;10413630;28;20340;-68
2024/01/11 03:17:16;;;;;;;29.42;16.65;;;;;;;-5.02;100.00;103306.63;10413046;28;20112;-68
2024/01/11 03:22:16;;;;;;;24.40;16.45;;;;;;;-5.04;100.00;103304.91;10413051;28;20057;-68
2024/01/11 03:27:17;;;;;;;29.95;15.25;;;;;;;-5.15;100.00;103295.50;10413572;28;20092;-68
2024/01/11 03:32:17;;;;;;;19.30;13.77;;;;;;;-5.25;100.00;103299.25;10413900;28;20144;-68
2024/01/11 03:37:17;;;;;;;20.60;15.45;;;;;;;-5.38;100.00;103300.47;10412935;28;20369;-68
2024/01/11 03:42:18;;;;;;;34.10;17.25;;;;;;;-5.53;100.00;103309.59;10413438;28;20567;-68
2024/01/11 03:47:18;;;;;;;21.65;16.75;;;;;;;-5.67;100.00;103309.03;10412499;28;20037;-68
2024/01/11 03:52:19;;;;;;;28.15;17.17;;;;;;;-5.73;100.00;103314.44;10412264;28;20033;-68
2024/01/11 03:57:19;;;;;;;26.00;16.45;;;;;;;-5.75;100.00;103313.59;10411583;28;20330;-68
2024/01/11 04:02:20;;;;;;;31.10;19.48;;;;;;;-5.73;100.00;103317.94;10412184;28;20037;-68
2024/01/11 04:07:20;;;;;;;21.90;16.48;;;;;;;-5.63;100.00;103310.69;10410172;28;20369;-68
2024/01/11 04:12:20;;;;;;;20.40;16.00;;;;;;;-5.57;100.00;103307.94;10410495;28;20148;-68
2024/01/11 04:17:21;;;;;;;30.35;20.13;;;;;;;-5.43;100.00;103307.59;10413184;28;20102;-68
2024/01/11 04:22:22;;;;;;;31.15;19.75;;;;;;;-5.48;100.00;103323.56;10411684;28;20119;-69
2024/01/11 04:27:22;;;;;;;29.63;16.98;;;;;;;-5.61;100.00;103322.09;10412244;28;20049;-68
2024/01/11 04:32:22;;;;;;;27.95;16.65;;;;;;;-5.68;100.00;103331.03;10410801;28;20045;-68
2024/01/11 04:37:23;;;;;;;33.50;21.05;;;;;;;-5.76;100.00;103327.72;10412099;28;20037;-69
2024/01/11 04:42:23;;;;;;;31.45;21.17;;;;;;;-5.69;100.00;103350.41;10416045;28;20101;-68
2024/01/11 04:47:24;;;;;;;26.95;18.02;;;;;;;-5.76;100.00;103351.47;10419903;28;20124;-69
2024/01/11 04:52:24;;;;;;;29.30;17.38;;;;;;;-5.82;100.00;103364.78;10418449;28;20048;-69
2024/01/11 04:57:24;;;;;;;26.23;19.25;;;;;;;-5.90;100.00;103371.09;10401156;28;20037;-69
2024/01/11 05:02:25;;;;;;;28.50;20.98;;;;;;;-5.87;100.00;103364.84;10418837;28;20037;-69
2024/01/11 05:07:27;;;;;;;26.48;18.35;;;;;;;-5.91;100.00;103368.47;10420155;28;20336;-68
2024/01/11 05:12:27;;;;;;;30.25;17.92;;;;;;;-5.93;100.00;103375.59;10416761;28;20033;-68
2024/01/11 05:17:28;;;;;;;26.98;17.60;;;;;;;-6.00;100.00;103395.91;10422497;28;20037;-69
2024/01/11 05:22:28;;;;;;;23.35;15.88;;;;;;;-6.04;100.00;103375.78;10422518;28;20116;-69
2024/01/11 05:27:28;;;;;;;27.55;18.83;;;;;;;-6.05;100.00;103384.59;10417668;28;20038;-70
2024/01/11 05:32:29;;;;;;;27.45;19.02;;;;;;;-6.13;100.00;103360.13;10417492;28;20052;-70
2024/01/11 05:37:29;;;;;;;25.55;18.48;;;;;;;-6.12;100.00;103369.78;10417971;28;20056;-70
2024/01/11 05:42:30;;;;;;;32.28;22.13;;;;;;;-6.08;100.00;103376.75;10415734;28;20087;-70
2024/01/11 05:47:30;;;;;;;31.95;18.65;;;;;;;-6.13;100.00;103382.09;10416461;28;20087;-70
2024/01/11 05:52:30;;;;;;;24.73;18.00;;;;;;;-6.14;100.00;103376.84;10415900;28;20026;-69
2024/01/11 05:57:31;;;;;;;30.02;20.75;;;;;;;-6.16;100.00;103379.53;10415484;28;20033;-69
2024/01/11 06:02:31;;;;;;;34.78;21.63;;;;;;;-6.15;100.00;103396.22;10416334;28;20029;-70
2024/01/11 06:07:32;;;;;;;30.55;21.88;;;;;;;-6.10;100.00;103382.03;10416811;28;20033;-70
2024/01/11 06:12:32;;;;;;;31.15;21.73;;;;;;;-6.11;100.00;103376.81;10417205;28;20437;-69
2024/01/11 06:17:32;;;;;;;35.75;19.88;;;;;;;-6.16;100.00;103379.53;10414645;28;20350;-68
2024/01/11 06:22:33;;;;;;;34.95;24.80;;;;;;;-6.14;100.00;103400.59;10414115;28;20041;-69
2024/01/11 06:27:33;;;;;;;38.60;24.85;;;;;;;-6.15;100.00;103377.75;10414881;28;20042;-69
2024/01/11 06:32:34;;;;;;;27.92;19.58;;;;;;;-6.15;100.00;103377.75;10415680;28;20049;-69
2024/01/11 06:37:34;;;;;;;39.65;23.83;;;;;;;-6.23;100.00;103395.47;10414287;28;20376;-69
2024/01/11 06:42:34;;;;;;;33.35;23.20;;;;;;;-6.36;100.00;103416.78;10416156;28;20037;-70
2024/01/11 06:47:35;;;;;;;33.10;23.83;;;;;;;-6.30;100.00;103430.78;10417193;28;20044;-69
2024/01/11 06:52:35;;;;;;;38.70;26.15;;;;;;;-6.20;100.00;103437.63;10414915;28;20084;-69
2024/01/11 06:57:36;;;;;;;40.72;25.70;;;;;;;-6.16;100.00;103434.03;10413456;28;20033;-69
2024/01/11 07:02:36;;;;;;;49.85;27.45;;;;;;;-6.06;100.00;103456.72;10413869;28;20084;-69
2024/01/11 07:07:37;;;;;;;40.22;26.90;;;;;;;-6.04;100.00;103451.41;10414824;28;20068;-69
2024/01/11 07:12:38;;;;;;;36.53;24.73;;;;;;;-6.04;100.00;103473.38;10413004;28;20034;-70
2024/01/11 07:17:39;;;;;;;38.58;28.15;;;;;;;-5.95;100.00;103460.03;10411956;28;20033;-69
2024/01/11 07:22:39;;;;;;;48.85;30.02;;;;;;;-5.90;100.00;103458.16;10413016;28;20377;-69
2024/01/11 07:27:40;;;;;;;50.60;31.42;;;;;;;-5.86;100.00;103438.72;10413289;28;20112;-70
2024/01/11 07:32:40;;;;;;;44.13;28.83;;;;;;;-5.76;100.00;103449.97;10415244;28;20128;-70
2024/01/11 07:37:40;;;;;;;54.85;33.33;;;;;;;-5.68;100.00;103450.69;10412960;28;20041;-72
2024/01/11 07:42:41;;;;;;;37.72;26.92;;;;;;;-5.57;100.00;103452.25;10411700;28;20112;-70
2024/01/11 07:47:42;;;;;;;59.30;36.85;;;;;;;-5.52;100.00;103448.63;10413133;28;20029;-69
2024/01/11 07:52:42;;;;;;;60.72;38.20;;;;;;;-5.40;100.00;103432.50;10411408;28;20025;-70
2024/01/11 07:57:43;;;;;;;58.33;40.92;;;;;;;-5.32;100.00;103434.16;10410725;28;20060;-70
2024/01/11 08:02:43;;;;;;;48.75;30.90;;;;;;;-5.35;100.00;103434.22;10394524;28;20124;-70
2024/01/11 08:07:44;;;;;;;52.60;34.90;;;;;;;-5.28;100.00;103425.25;10410305;28;20065;-70
2024/01/11 08:12:44;;;;;;;52.00;34.58;;;;;;;-5.01;100.00;103445.78;10412569;28;20416;-69
2024/01/11 08:17:45;;;;;;;51.97;33.45;;;;;;;-4.68;100.00;103451.19;10419136;28;20330;-69
2024/01/11 08:22:47;;;;;;;59.78;36.67;;;;;;;-4.25;100.00;103458.06;10422998;28;20127;-69
2024/01/11 08:27:47;;;;;;;60.72;36.97;;;;;;;-3.52;100.00;103464.03;10419977;28;20110;-70
2024/01/11 08:32:48;;;;;;;52.92;36.10;;;;;;;-2.82;100.00;103458.44;10419928;28;20111;-70
2024/01/11 08:37:49;;;;;;;63.38;36.80;;;;;;;-2.16;100.00;103452.78;10419006;28;20413;-70
2024/01/11 08:42:49;;;;;;;81.43;44.10;;;;;;;-1.56;100.00;103453.31;10419279;28;20029;-69
2024/01/11 08:47:51;;;;;;;77.30;47.70;;;;;;;-1.10;100.00;103451.59;10419006;28;20120;-69
2024/01/11 08:52:51;;;;;;;78.60;48.00;;;;;;;-0.52;100.00;103457.28;10419637;28;20025;-68
2024/01/11 08:57:52;;;;;;;77.57;50.85;;;;;;;-0.03;100.00;103463.25;10417434;28;20025;-67
2024/01/11 09:02:52;;;;;;;72.28;46.88;;;;;;;0.32;100.00;103467.03;10416738;28;20036;-67
2024/01/11 09:07:53;;;;;;;53.08;35.97;;;;;;;0.82;100.00;103469.19;10418546;28;20144;-67
2024/01/11 09:12:54;;;;;;;57.95;35.30;;;;;;;1.02;100.00;103486.97;10416947;28;20025;-67
2024/01/11 09:17:54;;;;;;;49.10;30.23;;;;;;;1.17;100.00;103490.69;10417741;28;20056;-67
2024/01/11 09:22:55;;;;;;;47.22;32.00;;;;;;;1.36;100.00;103504.91;10418564;28;20131;-67
2024/01/11 09:27:55;;;;;;;47.88;30.30;;;;;;;1.51;100.00;103511.31;10418133;28;20087;-66
2024/01/11 09:32:56;;;;;;;38.58;28.90;;;;;;;1.69;100.00;103514.00;10417730;28;20053;-66
2024/01/11 09:37:56;;;;;;;43.47;30.30;;;;;;;1.82;100.00;103531.19;10417674;28;20033;-66
2024/01/11 09:42:57;;;;;;;42.70;28.23;;;;;;;1.93;100.00;103536.00;10420481;28;20030;-66
2024/01/11 09:47:57;;;;;;;43.13;24.05;;;;;;;1.94;100.00;103545.75;10417908;28;20112;-66
2024/01/11 09:52:58;;;;;;;40.28;25.90;;;;;;;1.42;100.00;103550.94;10415954;28;20025;-66
2024/01/11 09:57:59;;;;;;;41.45;29.27;;;;;;;1.17;100.00;103552.94;10415896;28;20303;-66
2024/01/11 10:02:59;;;;;;;43.55;29.33;;;;;;;0.61;100.00;103560.88;10416278;28;20189;-66
2024/01/11 10:08:00;;;;;;;44.13;29.17;;;;;;;0.35;100.00;103562.84;10415438;28;20032;-66
2024/01/11 10:13:00;;;;;;;36.80;27.23;;;;;;;0.40;100.00;103559.97;10417266;28;20025;-65
2024/01/11 10:18:01;;;;;;;39.33;28.67;;;;;;;0.33;100.00;103555.84;10416296;28;20472;-67
2024/01/11 10:23:02;;;;;;;37.42;26.98;;;;;;;0.45;100.00;103545.53;10416991;28;20113;-66
2024/01/11 10:28:03;;;;;;;33.83;24.80;;;;;;;0.47;100.00;103543.63;10415522;28;20033;-64
2024/01/11 10:33:05;;;;;;;40.53;28.58;;;;;;;0.54;100.00;103543.38;10400092;28;20168;-65
2024/01/11 10:38:09;;;;;;;35.83;27.33;;;;;;;0.51;100.00;103532.84;10414775;28;20025;-66
2024/01/11 10:43:13;;;;;;;38.33;26.25;;;;;;;0.61;100.00;103535.06;10417899;28;20415;-64
2024/01/11 10:48:14;;;;;;;34.10;24.33;;;;;;;0.65;100.00;103538.44;10415015;28;20088;-66
2024/01/11 10:53:39;;;;;;;41.22;25.70;;;;;;;0.74;100.00;103542.50;10414660;28;20087;-65
2024/01/11 10:58:40;;;;;;;39.92;25.30;;;;;;;0.79;100.00;103538.69;10418254;28;20081;-64
2024/01/11 11:03:42;;;;;;;36.13;22.58;;;;;;;0.90;100.00;103562.22;10417306;28;20029;-64
2024/01/11 11:08:43;;;;;;;31.70;23.30;;;;;;;0.76;100.00;103573.50;10400363;28;20425;-65
2024/01/11 11:13:43;;;;;;;33.10;23.15;;;;;;;0.96;100.00;103569.06;10398365;28;20025;-65
2024/01/11 11:18:43;;;;;;;35.65;21.10;;;;;;;0.85;100.00;103578.44;10382592;28;20369;-65
2024/01/11 11:23:46;;;;;;;27.60;19.20;;;;;;;0.90;100.00;103557.75;10414000;28;20076;-64
2024/01/11 11:28:48;;;;;;;24.17;19.25;;;;;;;1.08;100.00;103545.34;10414278;28;20033;-64
2024/01/11 11:33:49;;;;;;;28.42;20.25;;;;;;;1.42;100.00;103542.94;10418317;28;20069;-66
2024/01/11 11:38:49;;;;;;;21.50;16.48;;;;;;;1.54;100.00;103529.88;10398773;28;20426;-65
2024/01/11 11:43:51;;;;;;;24.83;16.73;;;;;;;1.59;100.00;103549.19;10415667;28;20094;-66
2024/01/11 11:48:52;;;;;;;17.63;14.68;;;;;;;1.66;100.00;103554.22;10416165;28;20033;-65
2024/01/11 11:53:52;;;;;;;19.58;17.42;;;;;;;1.67;100.00;103550.66;10418217;28;20032;-65
2024/01/11 11:58:54;;;;;;;24.92;15.10;;;;;;;1.74;100.00;103546.72;10417296;28;20048;-64
2024/01/11 12:03:55;;;;;;;17.15;13.43;;;;;;;1.80;100.00;103533.06;10420928;28;20100;-66
2024/01/11 12:08:55;;;;;;;32.03;15.13;;;;;;;1.87;100.00;103515.78;10414645;28;20036;-66
2024/01/11 12:13:57;;;;;;;18.85;14.25;;;;;;;2.16;100.00;103526.81;10414243;28;20120;-64
2024/01/11 12:18:58;;;;;;;16.88;14.13;;;;;;;2.41;100.00;103513.91;10400976;28;20021;-64
2024/01/11 12:24:00;;;;;;;31.48;13.75;;;;;;;2.43;100.00;103514.72;10417469;28;20028;-66
2024/01/11 12:29:02;;;;;;;17.63;14.88;;;;;;;2.42;100.00;103504.06;10415351;28;20051;-64
2024/01/11 12:34:03;;;;;;;20.23;15.90;;;;;;;2.54;100.00;103496.28;10413516;28;20042;-64
2024/01/11 12:39:06;;;;;;;16.85;13.73;;;;;;;2.78;100.00;103490.56;10380129;28;20021;-66
2024/01/11 12:44:06;;;;;;;18.17;13.25;;;;;;;2.86;100.00;103466.06;10412072;28;20383;-64
2024/01/11 12:49:10;;;;;;;18.17;13.02;;;;;;;3.05;100.00;103476.63;10411597;28;20037;-64
2024/01/11 12:54:13;;;;;;;16.60;11.27;;;;;;;3.06;100.00;103478.34;10412868;28;20026;-63
2024/01/11 12:59:16;;;;;;;15.32;11.52;;;;;;;3.25;100.00;103474.56;10412049;28;20033;-65
2024/01/11 13:04:16;;;;;;;17.60;13.48;;;;;;;3.29;100.00;103463.66;10419049;28;20026;-66
2024/01/11 13:09:17;;;;;;;19.08;12.13;;;;;;;3.29;100.00;103464.53;10404574;28;20048;-65
2024/01/11 13:14:18;;;;;;;15.82;12.65;;;;;;;3.25;100.00;103462.97;10419256;28;20026;-64
2024/01/11 13:19:19;;;;;;;16.30;12.18;;;;;;;3.38;100.00;103474.75;10420116;28;20037;-64
2024/01/11 13:24:19;;;;;;;14.35;11.52;;;;;;;3.37;100.00;103448.03;10419524;28;20033;-64
2024/01/11 13:29:19;;;;;;;19.08;12.18;;;;;;;3.41;100.00;103458.47;10417761;28;20033;-66
2024/01/11 13:34:20;;;;;;;34.53;14.60;;;;;;;3.38;100.00;103436.34;10418457;28;20151;-66
2024/01/11 13:39:20;;;;;;;25.60;11.85;;;;;;;3.39;100.00;103433.59;10418688;28;20143;-66
2024/01/11 13:44:21;;;;;;;16.30;12.40;;;;;;;3.39;100.00;103433.59;10418205;28;20037;-63
2024/01/11 13:49:22;;;;;;;18.17;11.95;;;;;;;3.31;100.00;103427.81;10418438;28;20460;-64
2024/01/11 13:54:22;;;;;;;20.55;12.25;;;;;;;3.30;100.00;103428.78;10400346;28;20017;-65
2024/01/11 13:59:23;;;;;;;15.90;11.43;;;;;;;3.33;100.00;103431.28;10418817;28;20029;-64
2024/01/11 14:04:24;;;;;;;19.13;12.10;;;;;;;3.29;100.00;103427.06;10418761;28;20044;-64
2024/01/11 14:09:25;;;;;;;12.93;11.63;;;;;;;3.25;100.00;103431.72;10418278;28;20103;-64
2024/01/11 14:14:26;;;;;;;15.85;12.25;;;;;;;3.20;100.00;103433.78;10416232;28;20494;-63
2024/01/11 14:19:27;;;;;;;14.02;12.00;;;;;;;3.17;100.00;103441.13;10399586;28;20079;-63
2024/01/11 14:24:28;;;;;;;16.27;13.13;;;;;;;3.03;100.00;103442.78;10421268;28;20064;-63
2024/01/11 14:29:29;;;;;;;20.42;14.75;;;;;;;2.97;100.00;103429.75;10418131;28;20168;-65
2024/01/11 14:34:29;;;;;;;23.48;16.10;;;;;;;2.88;100.00;103416.00;10416788;28;20045;-64
2024/01/11 14:39:29;;;;;;;23.15;13.95;;;;;;;2.87;100.00;103419.59;10414918;28;20166;-65
2024/01/11 14:44:30;;;;;;;22.13;14.82;;;;;;;2.91;100.00;103418.50;10415997;28;20412;-65
2024/01/11 14:49:30;;;;;;;17.48;14.52;;;;;;;2.90;100.00;103417.63;10415752;28;20065;-64
2024/01/11 14:54:31;;;;;;;16.20;14.15;;;;;;;2.86;100.00;103412.53;10397347;28;20104;-64
2024/01/11 14:59:32;;;;;;;31.38;14.98;;;;;;;2.78;100.00;103405.81;10414550;28;20041;-65
2024/01/11 15:04:32;;;;;;;19.45;14.50;;;;;;;2.72;100.00;103406.16;10396968;28;20037;-64
2024/01/11 15:09:34;;;;;;;20.20;15.75;;;;;;;2.64;100.00;103396.81;10415287;28;20428;-63
2024/01/11 15:14:35;;;;;;;32.15;15.77;;;;;;;2.57;100.00;103393.59;10416588;28;20028;-64
2024/01/11 15:19:35;;;;;;;20.55;14.60;;;;;;;2.54;100.00;103402.66;10413710;28;20040;-63
2024/01/11 15:24:35;;;;;;;22.38;15.65;;;;;;;2.50;100.00;103395.75;10414445;28;20025;-65
2024/01/11 15:29:36;;;;;;;30.00;17.23;;;;;;;2.50;100.00;103401.09;10415586;28;20280;-66
2024/01/11 15:34:36;;;;;;;31.42;16.48;;;;;;;2.49;100.00;103396.72;10413926;28;20077;-64
2024/01/11 15:39:37;;;;;;;19.80;15.80;;;;;;;2.42;100.00;103403.31;10413580;28;20478;-63
2024/01/11 15:44:39;;;;;;;24.33;16.13;;;;;;;2.46;100.00;103415.59;10412581;28;20172;-64
2024/01/11 15:49:39;;;;;;;19.63;14.52;;;;;;;2.47;100.00;103408.44;10396446;28;20334;-65
2024/01/11 15:54:40;;;;;;;30.50;16.88;;;;;;;2.47;100.00;103409.28;10414283;28;20037;-64
2024/01/11 15:59:41;;;;;;;28.30;17.05;;;;;;;2.47;100.00;103408.44;10413054;28;20025;-66
2024/01/11 16:04:44;;;;;;;25.17;18.40;;;;;;;2.42;100.00;103399.78;10415347;28;20068;-65
2024/01/11 16:09:44;;;;;;;29.83;16.27;;;;;;;2.44;100.00;103398.75;10417438;28;20036;-63
2024/01/11 16:14:45;;;;;;;24.35;16.65;;;;;;;2.50;100.00;103400.25;10420520;28;20025;-63
2024/01/11 16:19:45;;;;;;;28.67;16.83;;;;;;;2.48;100.00;103396.78;10419772;28;20092;-64
2024/01/11 16:24:49;;;;;;;32.17;18.38;;;;;;;2.46;100.00;103386.19;10418522;28;20033;-64
2024/01/11 16:29:49;;;;;;;28.27;19.52;;;;;;;2.59;100.00;103398.88;10419629;28;20096;-63
2024/01/11 16:34:50;;;;;;;33.33;18.23;;;;;;;2.65;100.00;103388.72;10417544;28;20127;-66
2024/01/11 16:39:50;;;;;;;22.90;18.92;;;;;;;2.61;100.00;103388.94;10424560;28;20057;-65
2024/01/11 16:44:50;;;;;;;27.38;18.52;;;;;;;2.63;100.00;103393.28;10422773;28;20033;-66
2024/01/11 16:49:51;;;;;;;24.95;19.88;;;;;;;2.67;100.00;103388.63;10422426;28;20068;-64
2024/01/11 16:54:51;;;;;;;27.15;18.15;;;;;;;2.71;100.00;103379.47;10422089;28;20087;-64
2024/01/11 16:59:52;;;;;;;24.50;19.27;;;;;;;2.74;100.00;103377.50;10422253;28;20037;-65
2024/01/11 17:04:52;;;;;;;24.10;19.00;;;;;;;2.80;100.00;103377.13;10406951;28;20025;-63
2024/01/11 17:09:53;;;;;;;26.10;19.25;;;;;;;2.87;100.00;103380.34;10423294;28;20064;-64
2024/01/11 17:14:53;;;;;;;29.77;19.55;;;;;;;2.95;100.00;103383.44;10422797;28;20471;-65
2024/01/11 17:19:53;;;;;;;24.33;19.05;;;;;;;3.00;100.00;103376.03;10423500;28;20152;-64
2024/01/11 17:24:54;;;;;;;29.50;20.55;;;;;;;3.04;100.00;103379.41;10420509;28;20465;-66
2024/01/11 17:29:54;;;;;;;34.60;21.65;;;;;;;3.07;100.00;103389.94;10419515;28;20091;-65
2024/01/11 17:34:56;;;;;;;33.45;19.80;;;;;;;3.09;100.00;103381.78;10419106;28;20049;-65
2024/01/11 17:39:57;;;;;;;35.83;19.63;;;;;;;3.08;100.00;103380.94;10417569;28;20041;-65
2024/01/11 17:44:57;;;;;;;34.35;20.02;;;;;;;3.14;100.00;103388.63;10419467;28;20085;-65
2024/01/11 17:49:58;;;;;;;30.38;19.60;;;;;;;3.12;100.00;103389.66;10417047;28;20037;-64
2024/01/11 17:54:58;;;;;;;37.35;20.10;;;;;;;3.13;100.00;103394.06;10416871;28;20426;-65
2024/01/11 17:59:59;;;;;;;31.38;20.00;;;;;;;3.14;100.00;103385.94;10419963;28;20040;-65
2024/01/11 18:04:59;;;;;;;29.85;21.45;;;;;;;3.20;100.00;103379.38;10421115;28;20033;-64
2024/01/11 18:10:00;;;;;;;29.92;18.08;;;;;;;3.25;100.00;103377.28;10418945;28;20413;-64
2024/01/11 18:15:00;;;;;;;32.90;19.05;;;;;;;3.24;100.00;103367.53;10418899;28;20345;-66
2024/01/11 18:20:00;;;;;;;22.80;17.42;;;;;;;3.33;100.00;103380.38;10417267;28;20049;-65
2024/01/11 18:25:01;;;;;;;32.20;18.85;;;;;;;3.48;100.00;103373.28;10417450;28;20116;-66
2024/01/11 18:30:02;;;;;;;26.23;17.17;;;;;;;3.55;100.00;103377.31;10415307;28;20037;-63
2024/01/11 18:35:03;;;;;;;39.28;13.13;;;;;;;3.65;100.00;103374.97;10417254;28;20132;-65
2024/01/11 18:40:04;;;;;;;37.42;12.95;;;;;;;3.93;100.00;103383.06;10382596;28;20029;-64
2024/01/11 18:45:05;;;;;;;27.35;11.93;;;;;;;4.12;100.00;103390.00;10415052;28;20120;-64
2024/01/11 18:50:07;;;;;;;34.35;11.60;;;;;;;4.24;100.00;103386.53;10432431;28;20064;-65
2024/01/11 18:55:08;;;;;;;28.10;9.70;;;;;;;4.35;100.00;103393.94;10416919;28;20033;-66
2024/01/11 19:00:10;;;;;;;22.05;8.73;;;;;;;4.44;100.00;103396.03;10413502;28;20341;-65
2024/01/11 19:05:11;;;;;;;33.55;9.68;;;;;;;4.52;100.00;103384.81;10416403;28;20045;-65
2024/01/11 19:10:12;;;;;;;38.17;10.93;;;;;;;4.60;100.00;103386.06;10415461;28;20034;-66
2024/01/11 19:15:13;;;;;;;25.90;8.60;;;;;;;4.63;100.00;103374.28;10415379;28;20025;-65
2024/01/11 19:20:14;;;;;;;23.25;8.43;;;;;;;4.70;100.00;103385.47;10414556;28;20169;-65
2024/01/11 19:25:15;;;;;;;26.92;11.00;;;;;;;4.73;100.00;103398.72;10413207;28;20037;-66
2024/01/11 19:30:15;;;;;;;24.25;7.13;;;;;;;4.68;100.00;103377.50;10413802;28;20121;-65
2024/01/11 19:35:16;;;;;;;17.73;8.07;;;;;;;4.73;100.00;103396.88;10414719;28;20049;-65
2024/01/11 19:40:16;;;;;;;20.45;9.30;;;;;;;4.71;100.00;103405.97;10429363;28;20045;-64
2024/01/11 19:45:17;;;;;;;38.72;9.70;;;;;;;4.71;100.00;103406.84;10414320;28;20033;-65
2024/01/11 19:50:17;;;;;;;30.13;8.95;;;;;;;4.73;100.00;103410.28;10413319;28;20033;-66
2024/01/11 19:55:17;;;;;;;21.55;5.97;;;;;;;4.71;100.00;103401.47;10413600;28;20511;-69
2024/01/11 20:00:18;;;;;;;21.52;6.93;;;;;;;4.76;100.00;103410.09;10429124;28;20147;-65
2024/01/11 20:05:18;;;;;;;37.72;9.60;;;;;;;4.83;100.00;103402.50;10412717;28;20029;-66
2024/01/11 20:10:19;;;;;;;29.33;8.07;;;;;;;4.84;100.00;103399.72;10413607;28;20487;-65
2024/01/11 20:15:19;;;;;;;25.70;7.35;;;;;;;4.83;100.00;103400.69;10417561;28;20025;-68
2024/01/11 20:20:20;;;;;;;19.77;5.95;;;;;;;4.88;100.00;103411.13;10421919;28;20376;-65
2024/01/11 20:25:20;;;;;;;22.13;8.25;;;;;;;4.89;100.00;103405.66;10415421;28;20033;-69
2024/01/11 20:30:21;;;;;;;31.92;8.80;;;;;;;4.90;100.00;103412.75;10424119;28;20460;-69
2024/01/11 20:35:22;;;;;;;24.45;7.55;;;;;;;4.88;100.00;103409.31;10418892;28;20050;-68
2024/01/11 20:40:22;;;;;;;29.25;8.50;;;;;;;4.90;100.00;103415.44;10413773;28;20038;-68
2024/01/11 20:45:22;;;;;;;17.92;7.45;;;;;;;4.90;100.00;103409.22;10414288;28;20057;-69
2024/01/11 20:50:23;;;;;;;31.90;8.32;;;;;;;4.84;100.00;103397.03;10413025;28;20116;-67
2024/01/11 20:55:23;;;;;;;22.17;7.10;;;;;;;4.84;100.00;103405.09;10412640;28;20041;-67
2024/01/11 21:00:24;;;;;;;14.65;7.13;;;;;;;4.87;100.00;103423.69;10413490;28;20106;-67
2024/01/11 21:05:24;;;;;;;23.02;8.82;;;;;;;4.92;100.00;103417.19;10432301;28;20070;-67
2024/01/11 21:10:26;;;;;;;32.83;7.07;;;;;;;4.87;100.00;103423.69;10411930;28;20033;-66
2024/01/11 21:15:27;;;;;;;26.10;7.95;;;;;;;4.92;100.00;103431.47;10410550;28;20049;-67
2024/01/11 21:20:28;;;;;;;28.00;7.60;;;;;;;4.89;100.00;103424.47;10411499;28;20113;-65
2024/01/11 21:25:28;;;;;;;23.48;6.70;;;;;;;4.94;100.00;103425.97;10419514;28;20329;-66
2024/01/11 21:30:28;;;;;;;38.63;10.45;;;;;;;4.92;100.00;103419.88;10417379;28;20069;-64
2024/01/11 21:35:29;;;;;;;21.85;9.10;;;;;;;4.89;100.00;103421.78;10418306;28;20064;-67
2024/01/11 21:40:29;;;;;;;17.42;7.30;;;;;;;4.94;100.00;103415.25;10418723;28;20029;-66
2024/01/11 21:45:30;;;;;;;22.20;8.95;;;;;;;4.91;100.00;103421.66;10417501;28;20513;-65
2024/01/11 21:50:30;;;;;;;31.60;9.75;;;;;;;4.86;100.00;103418.44;10417902;28;20044;-66
2024/01/11 21:55:32;;;;;;;29.67;8.40;;;;;;;4.88;100.00;103421.84;10417790;28;20041;-68
2024/01/11 22:00:32;;;;;;;33.47;9.57;;;;;;;4.86;100.00;103431.84;10415962;28;20413;-65
2024/01/11 22:05:34;;;;;;;21.05;7.88;;;;;;;4.78;100.00;103426.94;10415448;28;20030;-65
2024/01/11 22:10:35;;;;;;;28.02;8.88;;;;;;;4.74;100.00;103436.16;10416553;28;20035;-67
2024/01/11 22:15:36;;;;;;;24.70;7.00;;;;;;;4.74;100.00;103433.47;10416931;28;20030;-67
2024/01/11 22:20:36;;;;;;;23.75;5.10;;;;;;;4.73;100.00;103433.59;10418741;28;20033;-66
2024/01/11 22:25:37;;;;;;;11.45;7.05;;;;;;;4.71;100.00;103433.69;10416895;28;20471;-66